Time;durP1;ratioP1;P1;durP2;ratioP2;P2;SDS_P1;SDS_P2;PMS_P1;PMS_P2;Temp;Humidity;BMP_temperature;BMP_pressure;BME280_temperature;BME280_humidity;BME280_pressure;Samples;Min_cycle;Max_cycle;Signal;HPM_P1;HPM_P2
2022/05/14 00:00:17;;;;;;;11.75;3.38;;;;;;;;;;4984585;28;20539;-60
2022/05/14 00:02:43;;;;;;;9.10;3.22;;;;;;;;;;4984655;28;20046;-59
2022/05/14 00:05:10;;;;;;;15.52;3.53;;;;;;;;;;4983809;28;20047;-59
2022/05/14 00:07:36;;;;;;;14.55;3.55;;;;;;;;;;4983886;28;20199;-60
2022/05/14 00:10:03;;;;;;;8.57;2.92;;;;;;;;;;4984457;28;20054;-59
2022/05/14 00:15:14;;;;;;;9.27;2.97;;;;;;;;;;4987794;28;20149;-60
2022/05/14 00:17:40;;;;;;;12.05;3.83;;;;;;;;;;4988248;28;20073;-60
2022/05/14 00:20:07;;;;;;;12.98;3.22;;;;;;;;;;4987032;28;20030;-60
2022/05/14 00:22:33;;;;;;;17.45;3.60;;;;;;;;;;4988060;28;20042;-59
2022/05/14 00:24:59;;;;;;;9.65;3.40;;;;;;;;;;4988187;28;20046;-59
2022/05/14 00:27:25;;;;;;;16.10;3.45;;;;;;;;;;4988007;28;20571;-60
2022/05/14 00:29:51;;;;;;;13.75;3.42;;;;;;;;;;4988171;28;20485;-59
2022/05/14 00:32:17;;;;;;;18.75;3.50;;;;;;;;;;4986382;28;20046;-60
2022/05/14 00:34:43;;;;;;;9.70;2.75;;;;;;;;;;4987056;28;20046;-59
2022/05/14 00:37:09;;;;;;;16.10;3.22;;;;;;;;;;4988067;28;20586;-60
2022/05/14 00:39:35;;;;;;;8.18;3.00;;;;;;;;;;4987356;28;20046;-59
2022/05/14 00:42:02;;;;;;;9.23;3.15;;;;;;;;;;4988153;28;20189;-59
2022/05/14 00:44:28;;;;;;;11.65;2.70;;;;;;;;;;4987013;28;20054;-60
2022/05/14 00:47:03;;;;;;;11.63;2.72;;;;;;;;;;4987958;28;20046;-59
2022/05/14 00:49:30;;;;;;;15.18;2.92;;;;;;;;;;4986632;28;20505;-60
2022/05/14 00:51:56;;;;;;;7.53;2.42;;;;;;;;;;4987999;28;20042;-59
2022/05/14 00:54:26;;;;;;;11.05;3.28;;;;;;;;;;4987371;28;20046;-60
2022/05/14 00:56:54;;;;;;;12.60;3.15;;;;;;;;;;4986418;28;20472;-59
2022/05/14 00:59:20;;;;;;;;;;;;;;;;;;4987486;28;20045;-59
2022/05/14 01:01:48;;;;;;;13.80;3.22;;;;;;;;;;4987444;28;19918;-59
2022/05/14 01:04:14;;;;;;;15.80;3.10;;;;;;;;;;4986108;28;20057;-60
2022/05/14 01:06:42;;;;;;;10.57;2.88;;;;;;;;;;4987550;28;20176;-60
2022/05/14 01:09:08;;;;;;;9.35;2.88;;;;;;;;;;4986852;28;21922;-60
2022/05/14 01:14:00;;;;;;;12.98;2.97;;;;;;;;;;4984443;23;20058;-59
2022/05/14 01:16:27;;;;;;;6.03;2.75;;;;;;;;;;4969871;28;20433;-59
2022/05/14 01:18:53;;;;;;;11.35;3.38;;;;;;;;;;4967642;28;20043;-59
2022/05/14 01:21:33;;;;;;;11.70;3.10;;;;;;;;;;4967856;28;20378;-59
2022/05/14 01:26:51;;;;;;;10.32;2.95;;;;;;;;;;4984145;28;20046;-60
2022/05/14 01:29:19;;;;;;;7.30;2.88;;;;;;;;;;4986593;28;20041;-60
2022/05/14 01:31:46;;;;;;;14.20;3.30;;;;;;;;;;4972251;28;20117;-59
2022/05/14 01:34:17;;;;;;;11.82;3.30;;;;;;;;;;4966338;28;20173;-60
2022/05/14 01:36:43;;;;;;;16.25;4.20;;;;;;;;;;4968425;28;20081;-60
2022/05/14 01:39:10;;;;;;;10.75;3.22;;;;;;;;;;4967822;28;20412;-60
2022/05/14 01:41:36;;;;;;;8.98;3.03;;;;;;;;;;4967944;28;20050;-60
2022/05/14 01:44:03;;;;;;;14.73;3.10;;;;;;;;;;4968363;28;20054;-59
2022/05/14 01:46:29;;;;;;;12.18;3.20;;;;;;;;;;4969127;28;20034;-59
2022/05/14 01:48:55;;;;;;;9.73;3.00;;;;;;;;;;4967427;28;20130;-60
2022/05/14 01:51:21;;;;;;;9.20;2.60;;;;;;;;;;4968690;28;20180;-60
2022/05/14 01:53:48;;;;;;;13.65;3.75;;;;;;;;;;4967755;28;20530;-60
2022/05/14 01:56:14;;;;;;;9.18;3.20;;;;;;;;;;4967070;28;20049;-61
2022/05/14 01:58:40;;;;;;;12.20;3.15;;;;;;;;;;4966624;28;20047;-60
2022/05/14 02:01:10;;;;;;;9.00;2.90;;;;;;;;;;4967788;28;20186;-60
2022/05/14 02:03:37;;;;;;;12.23;3.20;;;;;;;;;;4971606;28;20043;-60
2022/05/14 02:06:03;;;;;;;11.35;2.90;;;;;;;;;;4967968;28;20109;-60
2022/05/14 02:08:30;;;;;;;10.98;2.83;;;;;;;;;;4967929;28;20170;-59
2022/05/14 02:10:57;;;;;;;14.40;3.35;;;;;;;;;;4971472;28;20281;-60
2022/05/14 02:13:24;;;;;;;13.43;3.57;;;;;;;;;;4976625;28;20129;-60
2022/05/14 02:15:51;;;;;;;12.45;3.83;;;;;;;;;;4980811;28;20058;-59
2022/05/14 02:18:19;;;;;;;14.43;3.22;;;;;;;;;;4968189;28;20058;-60
2022/05/14 02:20:45;;;;;;;14.77;3.92;;;;;;;;;;4984758;28;20042;-60
2022/05/14 02:23:12;;;;;;;11.02;3.92;;;;;;;;;;4985641;28;20046;-59
2022/05/14 02:25:38;;;;;;;9.20;3.70;;;;;;;;;;4983780;28;20129;-60
2022/05/14 02:28:04;;;;;;;23.63;3.50;;;;;;;;;;4984780;28;20050;-60
2022/05/14 02:30:30;;;;;;;11.05;3.38;;;;;;;;;;4971082;28;20106;-59
2022/05/14 02:32:57;;;;;;;11.13;3.08;;;;;;;;;;4974513;28;20085;-59
2022/05/14 02:35:23;;;;;;;18.42;3.63;;;;;;;;;;4984105;28;20046;-60
2022/05/14 02:37:49;;;;;;;10.98;3.90;;;;;;;;;;4985656;28;20104;-59
2022/05/14 02:40:15;;;;;;;15.82;3.45;;;;;;;;;;4982132;28;20046;-60
2022/05/14 02:42:42;;;;;;;13.02;4.03;;;;;;;;;;4985529;28;20047;-60
2022/05/14 02:45:08;;;;;;;15.88;3.90;;;;;;;;;;4978718;28;20431;-59
2022/05/14 02:47:35;;;;;;;14.15;3.72;;;;;;;;;;4967002;28;20081;-59
2022/05/14 02:50:01;;;;;;;11.50;3.75;;;;;;;;;;4966260;28;20047;-59
2022/05/14 02:52:27;;;;;;;15.25;3.40;;;;;;;;;;4966611;28;20390;-60
2022/05/14 02:54:54;;;;;;;13.00;3.38;;;;;;;;;;4967045;28;20485;-59
2022/05/14 02:57:20;;;;;;;16.30;3.63;;;;;;;;;;4966505;28;20488;-59
2022/05/14 02:59:46;;;;;;;12.50;3.75;;;;;;;;;;4984944;28;20113;-59
2022/05/14 03:02:12;;;;;;;14.88;4.10;;;;;;;;;;4985172;28;20050;-60
2022/05/14 03:04:40;;;;;;;9.43;3.88;;;;;;;;;;4983906;28;20097;-60
2022/05/14 03:07:07;;;;;;;13.80;4.72;;;;;;;;;;4983811;28;20093;-59
2022/05/14 03:09:33;;;;;;;13.98;3.35;;;;;;;;;;4984914;28;20042;-59
2022/05/14 03:12:00;;;;;;;17.45;4.63;;;;;;;;;;4984842;28;20048;-59
2022/05/14 03:14:26;;;;;;;12.57;3.85;;;;;;;;;;4980943;28;20128;-59
2022/05/14 03:16:52;;;;;;;29.20;5.03;;;;;;;;;;4984740;28;20046;-59
2022/05/14 03:19:19;;;;;;;33.22;5.53;;;;;;;;;;4982463;28;20120;-60
2022/05/14 03:21:45;;;;;;;23.15;4.82;;;;;;;;;;4984510;28;20137;-60
2022/05/14 03:24:12;;;;;;;13.38;4.30;;;;;;;;;;4983870;28;20399;-60
2022/05/14 03:26:39;;;;;;;21.83;5.00;;;;;;;;;;4984273;28;20061;-60
2022/05/14 03:29:05;;;;;;;16.90;4.68;;;;;;;;;;4984246;28;21700;-60
2022/05/14 03:31:31;;;;;;;19.10;4.90;;;;;;;;;;4982949;28;20088;-59
2022/05/14 03:33:57;;;;;;;18.27;5.10;;;;;;;;;;4983877;28;20468;-59
2022/05/14 03:36:24;;;;;;;14.15;4.32;;;;;;;;;;4984012;28;20043;-59
2022/05/14 03:38:50;;;;;;;17.35;4.65;;;;;;;;;;4984279;28;20046;-59
2022/05/14 03:41:17;;;;;;;21.02;5.88;;;;;;;;;;4983715;28;20073;-60
2022/05/14 03:43:44;;;;;;;17.73;5.80;;;;;;;;;;4978872;28;20052;-60
2022/05/14 03:46:10;;;;;;;19.95;4.97;;;;;;;;;;4982284;28;20121;-60
2022/05/14 03:48:37;;;;;;;23.83;6.30;;;;;;;;;;4969236;28;20053;-60
2022/05/14 03:51:04;;;;;;;21.48;5.40;;;;;;;;;;4970074;28;20035;-59
2022/05/14 03:53:31;;;;;;;30.42;5.25;;;;;;;;;;4969751;28;20055;-60
2022/05/14 03:55:57;;;;;;;24.90;5.72;;;;;;;;;;4970795;28;20057;-60
2022/05/14 03:58:23;;;;;;;18.33;5.30;;;;;;;;;;4967825;28;20061;-60
2022/05/14 04:00:49;;;;;;;27.35;5.78;;;;;;;;;;4969262;28;20098;-59
2022/05/14 04:03:16;;;;;;;23.95;6.30;;;;;;;;;;4968364;28;20062;-60
2022/05/14 04:05:42;;;;;;;22.25;5.35;;;;;;;;;;4969431;28;20047;-60
2022/05/14 04:08:09;;;;;;;25.75;6.43;;;;;;;;;;4970375;28;20038;-60
2022/05/14 04:10:35;;;;;;;25.15;6.13;;;;;;;;;;4968905;28;20042;-60
2022/05/14 04:13:02;;;;;;;21.10;5.93;;;;;;;;;;4973321;28;20066;-59
2022/05/14 04:15:28;;;;;;;29.10;7.30;;;;;;;;;;4981417;28;20050;-59
2022/05/14 04:17:55;;;;;;;21.50;6.30;;;;;;;;;;4977018;28;20046;-59
2022/05/14 04:27:01;;;;;;;27.85;6.45;;;;;;;;;;4972640;28;20097;-60
2022/05/14 04:29:27;;;;;;;25.02;6.78;;;;;;;;;;4968346;28;20097;-60
2022/05/14 04:31:53;;;;;;;23.85;6.45;;;;;;;;;;4968688;28;20047;-60
2022/05/14 04:34:20;;;;;;;21.08;5.70;;;;;;;;;;4968699;28;20194;-60
2022/05/14 04:36:46;;;;;;;20.48;6.53;;;;;;;;;;4969025;28;20057;-60
2022/05/14 04:39:12;;;;;;;27.98;7.63;;;;;;;;;;4981589;28;20125;-60
2022/05/14 04:41:39;;;;;;;28.13;6.88;;;;;;;;;;4986778;28;20046;-60
2022/05/14 04:44:05;;;;;;;22.90;6.55;;;;;;;;;;4986869;28;20053;-61
2022/05/14 04:46:32;;;;;;;24.40;6.38;;;;;;;;;;4985388;28;20047;-60
2022/05/14 04:48:58;;;;;;;23.48;6.78;;;;;;;;;;4985805;28;20050;-60
2022/05/14 04:51:24;;;;;;;23.13;7.30;;;;;;;;;;4986570;28;20045;-60
2022/05/14 04:53:50;;;;;;;27.67;7.53;;;;;;;;;;4984373;28;20447;-60
2022/05/14 04:56:16;;;;;;;22.08;7.32;;;;;;;;;;4969222;28;20107;-60
2022/05/14 04:58:42;;;;;;;29.85;8.02;;;;;;;;;;4985521;28;20050;-60
2022/05/14 05:01:08;;;;;;;30.70;6.90;;;;;;;;;;4986334;28;20038;-60
2022/05/14 05:03:34;;;;;;;26.55;7.45;;;;;;;;;;4985882;28;20046;-60
2022/05/14 05:06:01;;;;;;;32.65;7.35;;;;;;;;;;4983685;28;20049;-60
2022/05/14 05:08:28;;;;;;;25.08;7.82;;;;;;;;;;4985962;28;20034;-60
2022/05/14 05:10:55;;;;;;;29.38;7.65;;;;;;;;;;4984859;28;20500;-60
2022/05/14 05:13:22;;;;;;;23.00;8.52;;;;;;;;;;4985828;28;20061;-60
2022/05/14 05:15:49;;;;;;;25.65;8.00;;;;;;;;;;4983996;28;20133;-60
2022/05/14 05:18:15;;;;;;;23.92;7.53;;;;;;;;;;4967146;28;20516;-61
2022/05/14 05:20:42;;;;;;;29.15;8.05;;;;;;;;;;4972012;28;20035;-60
2022/05/14 05:23:11;;;;;;;26.08;9.18;;;;;;;;;;4968638;28;20500;-60
2022/05/14 05:25:37;;;;;;;31.63;8.40;;;;;;;;;;4967867;28;20137;-60
2022/05/14 05:28:03;;;;;;;28.52;7.72;;;;;;;;;;4985728;28;20084;-60
2022/05/14 05:30:29;;;;;;;27.48;7.93;;;;;;;;;;4969226;28;20410;-59
2022/05/14 05:32:56;;;;;;;27.90;8.10;;;;;;;;;;4967240;28;20043;-60
2022/05/14 05:35:22;;;;;;;21.05;7.30;;;;;;;;;;4982665;28;20034;-60
2022/05/14 05:37:48;;;;;;;33.35;7.85;;;;;;;;;;4967249;28;20034;-60
2022/05/14 05:40:16;;;;;;;41.30;8.63;;;;;;;;;;4979810;28;20045;-61
2022/05/14 05:42:43;;;;;;;20.73;7.20;;;;;;;;;;4976756;28;20140;-61
2022/05/14 05:45:10;;;;;;;27.17;8.32;;;;;;;;;;4977976;28;20053;-60
2022/05/14 05:47:36;;;;;;;31.58;8.52;;;;;;;;;;4983031;28;20583;-61
2022/05/14 05:50:02;;;;;;;31.13;8.10;;;;;;;;;;4981062;28;20046;-60
2022/05/14 05:52:28;;;;;;;20.67;7.93;;;;;;;;;;4983692;28;20039;-60
2022/05/14 05:57:40;;;;;;;35.72;8.38;;;;;;;;;;4983276;28;20054;-60
2022/05/14 06:00:09;;;;;;;31.90;7.90;;;;;;;;;;4983372;28;20050;-60
2022/05/14 06:02:35;;;;;;;36.72;7.18;;;;;;;;;;4982410;28;20042;-60
2022/05/14 06:05:02;;;;;;;33.78;8.90;;;;;;;;;;4981458;28;20372;-60
2022/05/14 06:07:29;;;;;;;30.35;8.27;;;;;;;;;;4980583;28;20078;-60
2022/05/14 06:09:55;;;;;;;24.85;6.65;;;;;;;;;;4980224;28;20085;-60
2022/05/14 06:12:23;;;;;;;28.02;8.27;;;;;;;;;;4982333;28;20053;-60
2022/05/14 06:14:50;;;;;;;24.98;7.25;;;;;;;;;;4981876;28;20089;-60
2022/05/14 06:17:16;;;;;;;29.42;8.80;;;;;;;;;;4982171;28;20138;-60
2022/05/14 06:19:42;;;;;;;24.65;6.88;;;;;;;;;;4975725;28;20046;-60
2022/05/14 06:22:08;;;;;;;46.88;9.43;;;;;;;;;;4981287;28;20138;-60
2022/05/14 06:24:36;;;;;;;31.00;8.70;;;;;;;;;;4975316;28;20097;-60
2022/05/14 06:27:03;;;;;;;34.38;7.93;;;;;;;;;;4986521;28;20046;-60
2022/05/14 06:29:31;;;;;;;35.17;8.63;;;;;;;;;;4969940;28;20049;-60
2022/05/14 06:31:57;;;;;;;32.28;7.50;;;;;;;;;;4966963;28;20038;-60
2022/05/14 06:34:24;;;;;;;30.88;5.97;;;;;;;;;;4965579;28;20555;-60
2022/05/14 06:36:51;;;;;;;24.65;4.70;;;;;;;;;;4981871;28;20412;-60
2022/05/14 06:39:17;;;;;;;33.17;5.93;;;;;;;;;;4985014;28;20043;-61
2022/05/14 06:41:44;;;;;;;22.15;5.18;;;;;;;;;;4966852;28;20512;-60
2022/05/14 06:44:10;;;;;;;23.58;4.85;;;;;;;;;;4969563;28;20514;-61
2022/05/14 06:46:36;;;;;;;23.05;4.85;;;;;;;;;;4973405;28;20043;-61
2022/05/14 06:49:03;;;;;;;29.58;4.40;;;;;;;;;;4972904;28;20034;-60
2022/05/14 06:51:30;;;;;;;25.02;4.40;;;;;;;;;;4969612;28;20070;-60
2022/05/14 06:53:59;;;;;;;19.23;4.15;;;;;;;;;;4966975;28;20151;-60
2022/05/14 06:56:26;;;;;;;;;;;;;;;;;;4972342;28;20046;-61
2022/05/14 06:58:52;;;;;;;28.30;4.53;;;;;;;;;;4973933;28;20294;-61
2022/05/14 07:01:19;;;;;;;21.25;4.25;;;;;;;;;;4974589;28;20611;-61
2022/05/14 07:06:38;;;;;;;30.50;4.88;;;;;;;;;;4976070;28;20061;-60
2022/05/14 07:09:05;;;;;;;29.05;4.47;;;;;;;;;;4978130;28;20057;-61
2022/05/14 07:11:34;;;;;;;24.67;4.03;;;;;;;;;;4972373;28;20073;-60
2022/05/14 07:14:02;;;;;;;18.95;3.67;;;;;;;;;;4966739;28;20105;-60
2022/05/14 07:16:28;;;;;;;25.42;4.10;;;;;;;;;;4978980;28;20053;-61
2022/05/14 07:18:55;;;;;;;28.30;4.15;;;;;;;;;;4970192;28;20054;-60
2022/05/14 07:21:21;;;;;;;18.58;3.80;;;;;;;;;;4979735;28;20126;-61
2022/05/14 07:23:47;;;;;;;17.83;4.00;;;;;;;;;;4970688;28;20042;-61
2022/05/14 07:26:13;;;;;;;20.65;3.80;;;;;;;;;;4971569;28;20047;-61
2022/05/14 07:28:39;;;;;;;23.08;4.47;;;;;;;;;;4986978;28;20027;-61
2022/05/14 07:31:05;;;;;;;18.52;4.30;;;;;;;;;;4984150;28;20413;-62
2022/05/14 07:33:32;;;;;;;19.17;4.40;;;;;;;;;;4982837;28;20050;-61
2022/05/14 07:36:01;;;;;;;18.10;4.53;;;;;;;;;;4980771;28;20038;-61
2022/05/14 07:38:27;;;;;;;23.10;4.15;;;;;;;;;;4983989;28;20054;-61
2022/05/14 07:40:54;;;;;;;23.35;4.30;;;;;;;;;;4983126;28;20540;-61
2022/05/14 07:43:23;;;;;;;21.17;3.53;;;;;;;;;;4982428;28;20038;-61
2022/05/14 07:45:51;;;;;;;27.25;4.30;;;;;;;;;;4987194;28;20628;-61
2022/05/14 07:48:20;;;;;;;23.13;4.28;;;;;;;;;;4985741;28;20112;-61
2022/05/14 07:50:46;;;;;;;32.17;4.43;;;;;;;;;;4988274;28;20038;-60
2022/05/14 07:53:13;;;;;;;28.23;4.25;;;;;;;;;;4980479;28;20042;-60
2022/05/14 07:55:41;;;;;;;21.48;5.28;;;;;;;;;;4988546;28;20109;-60
2022/05/14 07:58:07;;;;;;;24.73;4.23;;;;;;;;;;4980589;28;20473;-61
2022/05/14 08:00:33;;;;;;;25.05;4.10;;;;;;;;;;4985877;28;20309;-62
2022/05/14 08:02:59;;;;;;;26.80;4.45;;;;;;;;;;4986326;28;20034;-61
2022/05/14 08:05:26;;;;;;;25.25;3.85;;;;;;;;;;4969755;28;20050;-62
2022/05/14 08:07:52;;;;;;;22.60;3.70;;;;;;;;;;4970198;28;20039;-61
2022/05/14 08:10:18;;;;;;;22.42;4.10;;;;;;;;;;4972118;28;20045;-62
2022/05/14 08:12:46;;;;;;;19.73;3.60;;;;;;;;;;4979419;28;20066;-62
2022/05/14 08:15:14;;;;;;;25.67;3.55;;;;;;;;;;4981375;28;20054;-62
2022/05/14 08:17:40;;;;;;;28.52;4.13;;;;;;;;;;4983676;28;20048;-62
2022/05/14 08:20:07;;;;;;;17.20;3.40;;;;;;;;;;4972150;28;20058;-62
2022/05/14 08:25:17;;;;;;;16.90;4.30;;;;;;;;;;4984272;28;20069;-62
2022/05/14 08:27:44;;;;;;;17.98;3.85;;;;;;;;;;4987187;28;20069;-62
2022/05/14 08:30:13;;;;;;;29.35;5.05;;;;;;;;;;4983955;28;20046;-62
2022/05/14 08:32:39;;;;;;;20.60;3.60;;;;;;;;;;4986571;28;20048;-62
2022/05/14 08:35:05;;;;;;;20.27;3.83;;;;;;;;;;4986993;28;20519;-62
2022/05/14 08:37:32;;;;;;;20.17;3.75;;;;;;;;;;4987118;28;20046;-62
2022/05/14 08:39:58;;;;;;;21.67;4.50;;;;;;;;;;4986890;28;20073;-63
2022/05/14 08:42:24;;;;;;;22.80;5.38;;;;;;;;;;4984426;28;20056;-62
2022/05/14 08:44:51;;;;;;;22.52;4.70;;;;;;;;;;4970591;28;20047;-62
2022/05/14 08:47:40;;;;;;;74.53;6.75;;;;;;;;;;4967938;28;20520;-63
2022/05/14 08:50:07;;;;;;;94.47;7.85;;;;;;;;;;4985678;28;20042;-63
2022/05/14 08:52:33;;;;;;;32.28;3.95;;;;;;;;;;4986761;28;20121;-63
2022/05/14 08:55:04;;;;;;;38.60;4.10;;;;;;;;;;4973161;28;20054;-62
2022/05/14 08:57:30;;;;;;;24.63;3.90;;;;;;;;;;4968643;28;20042;-61
2022/05/14 08:59:59;;;;;;;30.10;4.43;;;;;;;;;;4968548;28;20050;-62
2022/05/14 09:02:30;;;;;;;36.75;4.97;;;;;;;;;;4967613;28;20051;-62
2022/05/14 09:04:58;;;;;;;45.25;5.25;;;;;;;;;;4983150;28;20042;-62
2022/05/14 09:07:25;;;;;;;18.05;3.63;;;;;;;;;;4984954;28;20807;-62
2022/05/14 09:09:53;;;;;;;24.63;4.10;;;;;;;;;;4986737;28;20046;-62
2022/05/14 09:12:21;;;;;;;29.27;4.28;;;;;;;;;;4986371;28;20062;-62
2022/05/14 09:14:52;;;;;;;19.92;4.57;;;;;;;;;;4985868;28;20101;-62
2022/05/14 09:17:20;;;;;;;16.63;3.63;;;;;;;;;;4968461;28;20043;-61
2022/05/14 09:19:47;;;;;;;25.38;4.22;;;;;;;;;;4983250;28;20041;-61
2022/05/14 09:22:14;;;;;;;23.35;5.03;;;;;;;;;;4986295;28;20137;-61
2022/05/14 09:24:50;;;;;;;21.00;5.20;;;;;;;;;;4986321;28;20101;-61
2022/05/14 09:27:22;;;;;;;18.00;3.90;;;;;;;;;;4983526;28;20130;-61
2022/05/14 09:29:51;;;;;;;18.40;3.90;;;;;;;;;;4985367;28;20080;-61
2022/05/14 09:32:17;;;;;;;19.98;4.32;;;;;;;;;;4982528;28;20112;-61
2022/05/14 09:34:44;;;;;;;18.27;3.65;;;;;;;;;;4986259;28;20481;-61
2022/05/14 09:37:11;;;;;;;17.70;3.35;;;;;;;;;;4985660;28;20038;-60
2022/05/14 09:39:38;;;;;;;23.50;3.75;;;;;;;;;;4985366;28;20411;-61
2022/05/14 09:42:05;;;;;;;65.40;5.90;;;;;;;;;;4985879;28;20496;-61
2022/05/14 09:44:36;;;;;;;75.35;7.32;;;;;;;;;;4976788;28;20057;-61
2022/05/14 09:47:09;;;;;;;19.77;3.95;;;;;;;;;;4976943;28;20162;-60
2022/05/14 09:49:41;;;;;;;18.55;3.25;;;;;;;;;;4974184;28;20500;-63
2022/05/14 09:52:09;;;;;;;28.65;4.13;;;;;;;;;;4973728;28;20125;-61
2022/05/14 10:01:10;;;;;;;19.90;3.00;;;;;;;;;;4970754;28;20142;-61
2022/05/14 10:03:43;;;;;;;18.80;3.50;;;;;;;;;;4975552;28;20042;-62
2022/05/14 10:06:18;;;;;;;17.52;3.90;;;;;;;;;;4977441;28;20050;-62
2022/05/14 10:08:55;;;;;;;17.77;3.35;;;;;;;;;;4985666;28;20042;-62
2022/05/14 10:11:32;;;;;;;25.13;3.58;;;;;;;;;;4983155;28;20724;-62
2022/05/14 10:14:14;;;;;;;15.77;4.00;;;;;;;;;;4981569;28;20152;-62
2022/05/14 10:16:49;;;;;;;20.70;4.03;;;;;;;;;;4985729;28;20072;-62
2022/05/14 10:19:31;;;;;;;14.45;3.28;;;;;;;;;;4981304;28;20038;-62
2022/05/14 10:21:57;;;;;;;15.57;3.70;;;;;;;;;;4974580;28;20054;-62
2022/05/14 10:27:33;;;;;;;18.15;3.13;;;;;;;;;;4974787;28;21769;-62
2022/05/14 10:30:05;;;;;;;19.38;3.50;;;;;;;;;;4971735;28;20039;-61
2022/05/14 10:32:33;;;;;;;16.80;3.58;;;;;;;;;;4971645;28;20057;-61
2022/05/14 10:35:06;;;;;;;20.20;4.30;;;;;;;;;;4974905;28;20038;-62
2022/05/14 10:37:34;;;;;;;17.80;4.07;;;;;;;;;;4971681;28;20050;-61
2022/05/14 10:40:00;;;;;;;;;;;;;;;;;;4975638;28;20184;-62
2022/05/14 10:42:37;;;;;;;18.13;3.20;;;;;;;;;;4978153;28;20027;-61
2022/05/14 10:45:25;;;;;;;18.45;3.63;;;;;;;;;;4975906;28;20051;-61
2022/05/14 10:47:58;;;;;;;18.45;4.00;;;;;;;;;;4973830;28;20064;-61
2022/05/14 10:50:24;;;;;;;19.70;3.83;;;;;;;;;;4978428;28;20054;-62
2022/05/14 10:52:52;;;;;;;32.88;5.28;;;;;;;;;;4982713;28;20088;-62
2022/05/14 10:55:18;;;;;;;;;;;;;;;;;;4981291;28;20054;-61
2022/05/14 10:57:47;;;;;;;19.98;4.03;;;;;;;;;;4973115;28;20693;-62
2022/05/14 11:00:24;;;;;;;20.15;3.78;;;;;;;;;;4964216;28;20042;-62
2022/05/14 11:02:53;;;;;;;21.38;3.72;;;;;;;;;;4962175;28;20046;-62
2022/05/14 11:05:37;;;;;;;13.80;3.83;;;;;;;;;;4964315;28;20086;-61
2022/05/14 11:08:12;;;;;;;20.60;4.03;;;;;;;;;;4968720;28;20562;-62
2022/05/14 11:10:39;;;;;;;15.60;2.85;;;;;;;;;;4982105;28;20042;-62
2022/05/14 11:13:14;;;;;;;30.90;4.28;;;;;;;;;;4981392;28;20520;-62
2022/05/14 11:15:41;;;;;;;20.90;4.10;;;;;;;;;;4977896;28;20051;-61
2022/05/14 11:18:08;;;;;;;15.55;3.25;;;;;;;;;;4980941;28;20053;-61
2022/05/14 11:20:35;;;;;;;20.65;3.70;;;;;;;;;;4980034;28;20035;-62
2022/05/14 11:23:11;;;;;;;15.93;3.40;;;;;;;;;;4980521;28;20050;-62
2022/05/14 11:25:38;;;;;;;16.15;3.55;;;;;;;;;;4967068;28;20050;-61
2022/05/14 11:28:14;;;;;;;19.20;3.90;;;;;;;;;;4973141;28;20049;-61
2022/05/14 11:30:45;;;;;;;16.50;2.97;;;;;;;;;;4975357;28;20157;-61
2022/05/14 11:33:20;;;;;;;19.33;3.67;;;;;;;;;;4978618;28;20050;-61
2022/05/14 11:35:47;;;;;;;23.55;3.85;;;;;;;;;;4981586;28;20109;-61
2022/05/14 11:38:16;;;;;;;19.13;3.33;;;;;;;;;;4981144;28;20125;-62
2022/05/14 11:40:42;;;;;;;21.45;3.78;;;;;;;;;;4969387;28;20531;-61
2022/05/14 11:43:20;;;;;;;13.77;2.95;;;;;;;;;;4969587;28;20041;-61
2022/05/14 11:45:46;;;;;;;;;;;;;;;;;;4979773;28;20096;-62
2022/05/14 11:48:18;;;;;;;26.40;3.10;;;;;;;;;;4968875;28;20327;-62
2022/05/14 11:50:57;;;;;;;21.52;4.07;;;;;;;;;;4973588;28;20536;-59
2022/05/14 11:53:27;;;;;;;17.73;3.53;;;;;;;;;;4972166;28;20483;-62
2022/05/14 11:56:02;;;;;;;15.45;3.38;;;;;;;;;;4973521;28;20078;-62
2022/05/14 11:58:35;;;;;;;17.23;3.40;;;;;;;;;;4971337;28;20047;-62
2022/05/14 12:01:06;;;;;;;13.70;3.35;;;;;;;;;;4976730;28;20524;-62
2022/05/14 12:03:34;;;;;;;18.05;3.72;;;;;;;;;;4980062;28;20050;-62
2022/05/14 12:06:07;;;;;;;19.95;3.92;;;;;;;;;;4978737;28;20064;-62
2022/05/14 12:08:39;;;;;;;19.88;3.30;;;;;;;;;;4984381;28;20148;-61
2022/05/14 12:11:19;;;;;;;14.73;3.38;;;;;;;;;;4983516;28;20057;-62
2022/05/14 12:13:57;;;;;;;19.35;2.80;;;;;;;;;;4939462;28;1113052;-62
2022/05/14 12:16:30;;;;;;;16.90;3.35;;;;;;;;;;4977369;28;20062;-61
2022/05/14 12:18:57;;;;;;;18.20;3.10;;;;;;;;;;4985075;28;20048;-62
2022/05/14 12:21:23;;;;;;;17.88;3.67;;;;;;;;;;4979900;28;20042;-62
2022/05/14 12:23:50;;;;;;;19.20;3.20;;;;;;;;;;4985284;28;20058;-62
2022/05/14 12:26:19;;;;;;;13.73;3.15;;;;;;;;;;4984522;28;20046;-62
2022/05/14 12:28:45;;;;;;;18.80;3.28;;;;;;;;;;4984883;28;20046;-62
2022/05/14 12:34:00;;;;;;;13.93;3.13;;;;;;;;;;4975864;28;20053;-62
2022/05/14 12:36:27;;;;;;;17.80;3.30;;;;;;;;;;4974558;28;20134;-62
2022/05/14 12:38:54;;;;;;;16.65;3.25;;;;;;;;;;4975444;28;20038;-62
2022/05/14 12:41:25;;;;;;;20.25;3.17;;;;;;;;;;4975557;28;20047;-62
2022/05/14 12:43:52;;;;;;;17.95;3.45;;;;;;;;;;4973401;28;20530;-62
2022/05/14 12:46:19;;;;;;;20.08;3.75;;;;;;;;;;4977835;28;20050;-62
2022/05/14 12:48:48;;;;;;;24.50;3.70;;;;;;;;;;4979148;28;20113;-61
2022/05/14 12:51:19;;;;;;;17.95;3.15;;;;;;;;;;4980263;28;20043;-62
2022/05/14 12:53:45;;;;;;;18.05;3.15;;;;;;;;;;4976070;28;20053;-62
2022/05/14 12:56:11;;;;;;;12.95;3.50;;;;;;;;;;4972833;28;20057;-61
2022/05/14 12:58:39;;;;;;;15.48;3.35;;;;;;;;;;4976984;28;20050;-61
2022/05/14 13:01:06;;;;;;;21.08;4.57;;;;;;;;;;4975146;28;20100;-61
2022/05/14 13:03:38;;;;;;;11.88;2.95;;;;;;;;;;4975253;28;20046;-61
2022/05/14 13:06:07;;;;;;;15.20;3.38;;;;;;;;;;4978013;28;20050;-61
2022/05/14 13:08:34;;;;;;;17.30;3.53;;;;;;;;;;4975546;28;20045;-62
2022/05/14 13:11:02;;;;;;;17.25;3.20;;;;;;;;;;4976500;28;20066;-62
2022/05/14 13:13:31;;;;;;;25.10;3.92;;;;;;;;;;4976783;28;20555;-62
2022/05/14 13:15:57;;;;;;;17.88;3.05;;;;;;;;;;4976260;28;20056;-62
2022/05/14 13:18:25;;;;;;;18.38;3.55;;;;;;;;;;4979523;28;20095;-60
2022/05/14 13:20:59;;;;;;;19.88;4.07;;;;;;;;;;4977205;28;20070;-60
2022/05/14 13:23:25;;;;;;;19.42;3.47;;;;;;;;;;4965366;28;20050;-60
2022/05/14 13:25:59;;;;;;;16.02;3.22;;;;;;;;;;4974928;28;20038;-60
2022/05/14 13:28:26;;;;;;;22.00;3.70;;;;;;;;;;4983538;28;20054;-60
2022/05/14 13:30:52;;;;;;;19.25;3.40;;;;;;;;;;4984106;28;20049;-60
2022/05/14 13:33:26;;;;;;;21.70;3.15;;;;;;;;;;4980655;28;20061;-60
2022/05/14 13:38:39;;;;;;;16.95;2.97;;;;;;;;;;4982061;28;20512;-60
2022/05/14 13:41:22;;;;;;;18.10;3.40;;;;;;;;;;4983508;28;20044;-60
2022/05/14 13:43:51;;;;;;;13.65;2.63;;;;;;;;;;4982287;28;20118;-60
2022/05/14 13:46:25;;;;;;;15.48;3.17;;;;;;;;;;4983227;28;20045;-60
2022/05/14 13:48:53;;;;;;;14.40;3.30;;;;;;;;;;4982960;28;20049;-60
2022/05/14 13:51:19;;;;;;;17.83;4.03;;;;;;;;;;4981914;28;20043;-60
2022/05/14 13:53:47;;;;;;;14.77;3.22;;;;;;;;;;4979939;28;20043;-60
2022/05/14 13:56:14;;;;;;;15.45;2.90;;;;;;;;;;4979352;28;20129;-59
2022/05/14 13:58:54;;;;;;;16.85;3.67;;;;;;;;;;4976001;28;20608;-59
2022/05/14 14:01:31;;;;;;;15.90;3.58;;;;;;;;;;4964702;28;20046;-59
2022/05/14 14:03:57;;;;;;;19.00;3.70;;;;;;;;;;4977605;28;20153;-59
2022/05/14 14:06:28;;;;;;;20.23;3.30;;;;;;;;;;4982762;28;20047;-59
2022/05/14 14:08:54;;;;;;;15.57;3.55;;;;;;;;;;4981132;28;20507;-60
2022/05/14 14:11:22;;;;;;;22.85;3.42;;;;;;;;;;4979845;28;20077;-59
2022/05/14 14:13:48;;;;;;;19.38;3.42;;;;;;;;;;4974974;28;20059;-60
2022/05/14 14:16:15;;;;;;;17.15;3.25;;;;;;;;;;4978097;28;20046;-60
2022/05/14 14:18:41;;;;;;;16.60;3.15;;;;;;;;;;4982495;28;20042;-60
2022/05/14 14:21:08;;;;;;;17.85;3.15;;;;;;;;;;4982867;28;20125;-60
2022/05/14 14:23:36;;;;;;;16.23;2.92;;;;;;;;;;4981328;28;20129;-59
2022/05/14 14:26:02;;;;;;;15.30;3.47;;;;;;;;;;4977934;28;20057;-60
2022/05/14 14:28:29;;;;;;;19.70;3.88;;;;;;;;;;4983811;28;20039;-60
2022/05/14 14:30:55;;;;;;;15.07;3.27;;;;;;;;;;4985039;28;20046;-60
2022/05/14 14:33:22;;;;;;;18.33;3.85;;;;;;;;;;4984212;28;20290;-59
2022/05/14 14:35:48;;;;;;;22.40;4.20;;;;;;;;;;4985016;28;20117;-59
2022/05/14 14:38:14;;;;;;;19.75;3.78;;;;;;;;;;4982945;28;20696;-60
2022/05/14 14:40:41;;;;;;;26.60;3.60;;;;;;;;;;4978940;28;20043;-59
2022/05/14 14:43:08;;;;;;;13.18;3.20;;;;;;;;;;4982744;28;20061;-60
2022/05/14 14:45:35;;;;;;;20.60;3.30;;;;;;;;;;4984628;28;20058;-59
2022/05/14 14:48:02;;;;;;;20.17;3.90;;;;;;;;;;4984229;28;20038;-59
2022/05/14 14:50:28;;;;;;;16.25;3.20;;;;;;;;;;4984742;28;20046;-59
2022/05/14 14:52:54;;;;;;;14.15;2.80;;;;;;;;;;4982291;28;20521;-59
2022/05/14 14:55:21;;;;;;;16.42;3.35;;;;;;;;;;4976906;28;20042;-60
2022/05/14 14:57:48;;;;;;;16.70;3.28;;;;;;;;;;4978247;28;20043;-62
2022/05/14 15:00:16;;;;;;;23.40;3.50;;;;;;;;;;4975669;28;20461;-62
2022/05/14 15:02:42;;;;;;;;;;;;;;;;;;4971069;28;20576;-61
2022/05/14 15:05:11;;;;;;;15.93;3.13;;;;;;;;;;4979255;28;20095;-62
2022/05/14 15:07:40;;;;;;;14.70;3.05;;;;;;;;;;4984339;28;20057;-61
2022/05/14 15:10:07;;;;;;;13.55;3.30;;;;;;;;;;4984422;28;20050;-62
2022/05/14 15:12:34;;;;;;;21.33;3.33;;;;;;;;;;4983034;28;20054;-62
2022/05/14 15:15:00;;;;;;;19.25;3.42;;;;;;;;;;4972991;28;20051;-62